sensor_id;sensor_type;location;lat;lon;timestamp;P1;durP1;ratioP1;P2;durP2;ratioP2
35576;SDS011;21680;52.400;16.920;2023-02-12T10:55:33;55.70;;;19.30;;
35576;SDS011;21680;52.400;16.920;2023-02-12T10:58:03;51.10;;;20.60;;
35576;SDS011;21680;52.400;16.920;2023-02-12T11:00:41;51.60;;;21.20;;
35576;SDS011;21680;52.400;16.920;2023-02-12T11:05:35;27.50;;;11.70;;
35576;SDS011;21680;52.400;16.920;2023-02-12T11:08:02;37.30;;;13.60;;
35576;SDS011;21680;52.400;16.920;2023-02-12T11:10:28;29.80;;;11.10;;
35576;SDS011;21680;52.400;16.920;2023-02-12T11:12:57;37.40;;;12.00;;
35576;SDS011;21680;52.400;16.920;2023-02-12T11:15:26;28.50;;;12.30;;
35576;SDS011;21680;52.400;16.920;2023-02-12T11:18:02;35.20;;;14.40;;
35576;SDS011;21680;52.400;16.920;2023-02-12T11:20:36;32.70;;;11.40;;
35576;SDS011;21680;52.400;16.920;2023-02-12T11:23:06;42.10;;;15.10;;
35576;SDS011;21680;52.400;16.920;2023-02-12T11:25:56;36.00;;;13.30;;
35576;SDS011;21680;52.400;16.920;2023-02-12T11:28:22;35.80;;;13.70;;
35576;SDS011;21680;52.400;16.920;2023-02-12T11:30:52;26.50;;;11.20;;
35576;SDS011;21680;52.400;16.920;2023-02-12T11:33:27;27.10;;;10.30;;
35576;SDS011;21680;52.400;16.920;2023-02-12T11:38:56;25.60;;;10.10;;
35576;SDS011;21680;52.400;16.920;2023-02-12T11:41:30;27.10;;;8.80;;
35576;SDS011;21680;52.400;16.920;2023-02-12T11:44:00;19.60;;;8.40;;
35576;SDS011;21680;52.400;16.920;2023-02-12T11:46:32;28.60;;;10.20;;
35576;SDS011;21680;52.400;16.920;2023-02-12T11:48:58;23.60;;;8.10;;
35576;SDS011;21680;52.400;16.920;2023-02-12T11:51:26;25.70;;;7.80;;
35576;SDS011;21680;52.400;16.920;2023-02-12T11:53:54;24.10;;;8.20;;
35576;SDS011;21680;52.400;16.920;2023-02-12T11:56:24;18.80;;;7.30;;
35576;SDS011;21680;52.400;16.920;2023-02-12T12:01:48;29.10;;;9.40;;
35576;SDS011;21680;52.400;16.920;2023-02-12T12:04:16;16.30;;;6.40;;
35576;SDS011;21680;52.400;16.920;2023-02-12T12:07:01;19.60;;;6.40;;
35576;SDS011;21680;52.400;16.920;2023-02-12T12:09:41;20.60;;;6.80;;
35576;SDS011;21680;52.400;16.920;2023-02-12T12:12:21;20.20;;;7.70;;
35576;SDS011;21680;52.400;16.920;2023-02-12T12:15:14;23.70;;;7.20;;
35576;SDS011;21680;52.400;16.920;2023-02-12T12:18:05;25.70;;;7.20;;
35576;SDS011;21680;52.400;16.920;2023-02-12T12:21:13;20.10;;;7.80;;
35576;SDS011;21680;52.400;16.920;2023-02-12T12:24:01;36.40;;;9.60;;
35576;SDS011;21680;52.400;16.920;2023-02-12T12:26:33;19.00;;;7.00;;
35576;SDS011;21680;52.400;16.920;2023-02-12T12:29:10;24.00;;;7.50;;
35576;SDS011;21680;52.400;16.920;2023-02-12T12:31:43;24.10;;;7.70;;
35576;SDS011;21680;52.400;16.920;2023-02-12T12:34:16;22.90;;;7.40;;
35576;SDS011;21680;52.400;16.920;2023-02-12T12:53:17;24.80;;;8.40;;
35576;SDS011;21680;52.400;16.920;2023-02-12T12:55:59;28.10;;;8.70;;
35576;SDS011;21680;52.400;16.920;2023-02-12T12:58:48;31.00;;;8.10;;
35576;SDS011;21680;52.400;16.920;2023-02-12T13:04:52;27.20;;;7.80;;
35576;SDS011;21680;52.400;16.920;2023-02-12T13:12:35;32.10;;;10.10;;
35576;SDS011;21680;52.400;16.920;2023-02-12T13:18:05;32.70;;;11.70;;
35576;SDS011;21680;52.400;16.920;2023-02-12T13:20:46;31.70;;;12.10;;
35576;SDS011;21680;52.400;16.920;2023-02-12T13:23:24;39.80;;;13.30;;
35576;SDS011;21680;52.400;16.920;2023-02-12T13:28:36;25.00;;;9.50;;
35576;SDS011;21680;52.400;16.920;2023-02-12T13:31:09;36.00;;;10.30;;
35576;SDS011;21680;52.400;16.920;2023-02-12T13:33:41;35.70;;;11.50;;
35576;SDS011;21680;52.400;16.920;2023-02-12T13:36:12;26.60;;;11.10;;
35576;SDS011;21680;52.400;16.920;2023-02-12T13:38:44;34.50;;;10.30;;
35576;SDS011;21680;52.400;16.920;2023-02-12T13:41:15;24.50;;;8.10;;
35576;SDS011;21680;52.400;16.920;2023-02-12T13:51:49;36.60;;;11.80;;
35576;SDS011;21680;52.400;16.920;2023-02-12T13:57:16;40.10;;;11.70;;
35576;SDS011;21680;52.400;16.920;2023-02-12T13:59:50;33.90;;;11.10;;
35576;SDS011;21680;52.400;16.920;2023-02-12T14:05:00;37.50;;;13.80;;
35576;SDS011;21680;52.400;16.920;2023-02-12T14:13:22;40.60;;;11.50;;
35576;SDS011;21680;52.400;16.920;2023-02-12T14:15:52;49.00;;;14.20;;
35576;SDS011;21680;52.400;16.920;2023-02-12T14:23:34;36.40;;;12.50;;
35576;SDS011;21680;52.400;16.920;2023-02-12T14:26:06;44.00;;;13.40;;
35576;SDS011;21680;52.400;16.920;2023-02-12T14:39:02;43.70;;;17.50;;
35576;SDS011;21680;52.400;16.920;2023-02-12T14:41:43;41.70;;;15.00;;
35576;SDS011;21680;52.400;16.920;2023-02-12T14:49:15;50.30;;;14.90;;
35576;SDS011;21680;52.400;16.920;2023-02-12T14:56:55;33.00;;;10.80;;
35576;SDS011;21680;52.400;16.920;2023-02-12T14:59:25;19.90;;;7.30;;
35576;SDS011;21680;52.400;16.920;2023-02-12T15:01:56;34.70;;;11.80;;
35576;SDS011;21680;52.400;16.920;2023-02-12T15:04:27;35.60;;;12.10;;
35576;SDS011;21680;52.400;16.920;2023-02-12T15:06:58;25.10;;;8.20;;
35576;SDS011;21680;52.400;16.920;2023-02-12T15:09:34;29.50;;;7.90;;
35576;SDS011;21680;52.400;16.920;2023-02-12T15:12:04;22.40;;;7.20;;
35576;SDS011;21680;52.400;16.920;2023-02-12T15:14:38;26.30;;;7.20;;
35576;SDS011;21680;52.400;16.920;2023-02-12T15:17:10;25.10;;;6.70;;
35576;SDS011;21680;52.400;16.920;2023-02-12T15:19:56;22.20;;;6.60;;
35576;SDS011;21680;52.400;16.920;2023-02-12T15:22:33;17.90;;;6.60;;
35576;SDS011;21680;52.400;16.920;2023-02-12T15:27:51;28.80;;;6.40;;
35576;SDS011;21680;52.400;16.920;2023-02-12T15:30:21;12.20;;;5.60;;
35576;SDS011;21680;52.400;16.920;2023-02-12T15:32:50;17.90;;;6.10;;
35576;SDS011;21680;52.400;16.920;2023-02-12T15:35:19;16.00;;;5.70;;
35576;SDS011;21680;52.400;16.920;2023-02-12T15:37:50;19.60;;;5.80;;
35576;SDS011;21680;52.400;16.920;2023-02-12T15:40:16;18.70;;;5.70;;
35576;SDS011;21680;52.400;16.920;2023-02-12T15:42:51;19.10;;;5.00;;
35576;SDS011;21680;52.400;16.920;2023-02-12T15:45:22;20.90;;;5.30;;
35576;SDS011;21680;52.400;16.920;2023-02-12T15:50:33;24.60;;;4.70;;
35576;SDS011;21680;52.400;16.920;2023-02-12T15:53:01;16.90;;;4.60;;
35576;SDS011;21680;52.400;16.920;2023-02-12T15:55:31;17.60;;;5.70;;
35576;SDS011;21680;52.400;16.920;2023-02-12T15:58:00;17.60;;;5.50;;
35576;SDS011;21680;52.400;16.920;2023-02-12T16:03:03;22.40;;;6.70;;
35576;SDS011;21680;52.400;16.920;2023-02-12T16:05:29;17.50;;;6.60;;
35576;SDS011;21680;52.400;16.920;2023-02-12T16:07:54;20.00;;;6.60;;
35576;SDS011;21680;52.400;16.920;2023-02-12T16:10:20;20.80;;;7.00;;
35576;SDS011;21680;52.400;16.920;2023-02-12T16:12:47;17.20;;;5.70;;
35576;SDS011;21680;52.400;16.920;2023-02-12T16:15:29;21.10;;;6.20;;
35576;SDS011;21680;52.400;16.920;2023-02-12T16:17:56;19.30;;;6.70;;
35576;SDS011;21680;52.400;16.920;2023-02-12T16:20:25;22.10;;;7.20;;
35576;SDS011;21680;52.400;16.920;2023-02-12T16:22:52;22.00;;;6.50;;
35576;SDS011;21680;52.400;16.920;2023-02-12T16:25:29;21.70;;;7.20;;
35576;SDS011;21680;52.400;16.920;2023-02-12T16:30:29;29.40;;;7.20;;
35576;SDS011;21680;52.400;16.920;2023-02-12T16:33:02;26.80;;;6.90;;
35576;SDS011;21680;52.400;16.920;2023-02-12T16:35:32;19.50;;;6.90;;
35576;SDS011;21680;52.400;16.920;2023-02-12T16:38:01;35.10;;;7.70;;
35576;SDS011;21680;52.400;16.920;2023-02-12T16:41:07;16.30;;;7.40;;
35576;SDS011;21680;52.400;16.920;2023-02-12T16:46:29;28.50;;;8.50;;
35576;SDS011;21680;52.400;16.920;2023-02-12T16:48:56;27.10;;;8.60;;
35576;SDS011;21680;52.400;16.920;2023-02-12T16:51:31;26.90;;;8.40;;
35576;SDS011;21680;52.400;16.920;2023-02-12T16:54:00;36.00;;;8.50;;
35576;SDS011;21680;52.400;16.920;2023-02-12T16:56:31;26.10;;;8.50;;
35576;SDS011;21680;52.400;16.920;2023-02-12T16:59:04;27.20;;;9.00;;
35576;SDS011;21680;52.400;16.920;2023-02-12T17:01:32;33.60;;;8.90;;
35576;SDS011;21680;52.400;16.920;2023-02-12T17:04:00;32.40;;;9.10;;
35576;SDS011;21680;52.400;16.920;2023-02-12T17:06:31;21.80;;;8.50;;
35576;SDS011;21680;52.400;16.920;2023-02-12T17:08:57;30.60;;;10.00;;
35576;SDS011;21680;52.400;16.920;2023-02-12T17:11:22;28.10;;;9.80;;
35576;SDS011;21680;52.400;16.920;2023-02-12T17:13:50;37.30;;;9.90;;
35576;SDS011;21680;52.400;16.920;2023-02-12T17:16:16;42.00;;;11.40;;
35576;SDS011;21680;52.400;16.920;2023-02-12T17:18:42;31.80;;;11.00;;
35576;SDS011;21680;52.400;16.920;2023-02-12T17:21:20;33.40;;;13.70;;
35576;SDS011;21680;52.400;16.920;2023-02-12T17:23:52;43.10;;;15.30;;
35576;SDS011;21680;52.400;16.920;2023-02-12T17:26:18;50.60;;;22.30;;
35576;SDS011;21680;52.400;16.920;2023-02-12T17:28:44;51.40;;;15.60;;
35576;SDS011;21680;52.400;16.920;2023-02-12T17:31:09;35.60;;;12.70;;
35576;SDS011;21680;52.400;16.920;2023-02-12T17:33:35;52.70;;;22.70;;
35576;SDS011;21680;52.400;16.920;2023-02-12T17:36:01;55.90;;;21.80;;
35576;SDS011;21680;52.400;16.920;2023-02-12T17:38:26;41.30;;;13.60;;
35576;SDS011;21680;52.400;16.920;2023-02-12T17:40:52;35.70;;;12.40;;
35576;SDS011;21680;52.400;16.920;2023-02-12T17:43:17;43.30;;;15.50;;
35576;SDS011;21680;52.400;16.920;2023-02-12T17:45:43;47.40;;;12.60;;
35576;SDS011;21680;52.400;16.920;2023-02-12T17:48:12;45.20;;;11.50;;
35576;SDS011;21680;52.400;16.920;2023-02-12T17:50:39;42.60;;;11.70;;
35576;SDS011;21680;52.400;16.920;2023-02-12T17:53:05;34.60;;;12.30;;
35576;SDS011;21680;52.400;16.920;2023-02-12T17:55:31;34.60;;;10.70;;
35576;SDS011;21680;52.400;16.920;2023-02-12T17:57:57;32.80;;;10.00;;
35576;SDS011;21680;52.400;16.920;2023-02-12T18:00:23;40.50;;;11.70;;
35576;SDS011;21680;52.400;16.920;2023-02-12T18:02:50;33.90;;;10.60;;
35576;SDS011;21680;52.400;16.920;2023-02-12T18:05:16;37.90;;;11.20;;
35576;SDS011;21680;52.400;16.920;2023-02-12T18:07:41;40.80;;;12.00;;
35576;SDS011;21680;52.400;16.920;2023-02-12T18:10:07;38.00;;;11.50;;
35576;SDS011;21680;52.400;16.920;2023-02-12T18:12:34;35.70;;;11.10;;
35576;SDS011;21680;52.400;16.920;2023-02-12T18:15:00;37.40;;;11.80;;
35576;SDS011;21680;52.400;16.920;2023-02-12T18:17:27;45.60;;;13.60;;
35576;SDS011;21680;52.400;16.920;2023-02-12T18:19:52;29.50;;;11.40;;
35576;SDS011;21680;52.400;16.920;2023-02-12T18:22:18;46.10;;;12.60;;
35576;SDS011;21680;52.400;16.920;2023-02-12T18:24:45;40.90;;;13.30;;
35576;SDS011;21680;52.400;16.920;2023-02-12T18:27:11;42.40;;;12.50;;
35576;SDS011;21680;52.400;16.920;2023-02-12T18:29:37;40.80;;;12.60;;
35576;SDS011;21680;52.400;16.920;2023-02-12T18:32:02;53.80;;;11.40;;
35576;SDS011;21680;52.400;16.920;2023-02-12T18:34:28;41.10;;;13.10;;
35576;SDS011;21680;52.400;16.920;2023-02-12T18:36:53;34.00;;;11.50;;
35576;SDS011;21680;52.400;16.920;2023-02-12T18:39:18;33.70;;;11.00;;
35576;SDS011;21680;52.400;16.920;2023-02-12T18:41:44;36.70;;;10.80;;
35576;SDS011;21680;52.400;16.920;2023-02-12T18:44:10;41.30;;;12.10;;
35576;SDS011;21680;52.400;16.920;2023-02-12T18:46:36;41.50;;;11.40;;
35576;SDS011;21680;52.400;16.920;2023-02-12T18:49:02;43.90;;;11.70;;
35576;SDS011;21680;52.400;16.920;2023-02-12T18:51:28;53.80;;;12.80;;
35576;SDS011;21680;52.400;16.920;2023-02-12T18:53:58;44.20;;;13.20;;
35576;SDS011;21680;52.400;16.920;2023-02-12T18:56:27;45.60;;;11.40;;
35576;SDS011;21680;52.400;16.920;2023-02-12T18:58:54;41.00;;;11.90;;
35576;SDS011;21680;52.400;16.920;2023-02-12T19:01:21;29.80;;;10.70;;
35576;SDS011;21680;52.400;16.920;2023-02-12T19:03:47;44.60;;;13.60;;
35576;SDS011;21680;52.400;16.920;2023-02-12T19:06:13;32.60;;;11.40;;
35576;SDS011;21680;52.400;16.920;2023-02-12T19:08:39;38.70;;;12.20;;
35576;SDS011;21680;52.400;16.920;2023-02-12T19:11:05;39.90;;;12.90;;
35576;SDS011;21680;52.400;16.920;2023-02-12T19:13:31;41.90;;;12.60;;
35576;SDS011;21680;52.400;16.920;2023-02-12T19:15:57;40.60;;;14.20;;
35576;SDS011;21680;52.400;16.920;2023-02-12T19:18:22;41.30;;;12.80;;
35576;SDS011;21680;52.400;16.920;2023-02-12T19:20:48;43.80;;;12.80;;
35576;SDS011;21680;52.400;16.920;2023-02-12T19:23:14;46.40;;;14.40;;
35576;SDS011;21680;52.400;16.920;2023-02-12T19:25:39;44.40;;;15.50;;
35576;SDS011;21680;52.400;16.920;2023-02-12T19:28:09;46.30;;;15.20;;
35576;SDS011;21680;52.400;16.920;2023-02-12T19:30:36;44.50;;;13.30;;
35576;SDS011;21680;52.400;16.920;2023-02-12T19:33:03;42.50;;;14.40;;
35576;SDS011;21680;52.400;16.920;2023-02-12T19:35:28;42.30;;;14.00;;
35576;SDS011;21680;52.400;16.920;2023-02-12T19:37:54;43.30;;;16.40;;
35576;SDS011;21680;52.400;16.920;2023-02-12T19:40:19;44.90;;;14.30;;
35576;SDS011;21680;52.400;16.920;2023-02-12T19:42:45;53.10;;;16.40;;
35576;SDS011;21680;52.400;16.920;2023-02-12T19:45:10;54.80;;;16.10;;
35576;SDS011;21680;52.400;16.920;2023-02-12T19:47:35;45.10;;;14.40;;
35576;SDS011;21680;52.400;16.920;2023-02-12T19:50:01;48.40;;;16.70;;
35576;SDS011;21680;52.400;16.920;2023-02-12T19:52:26;50.10;;;16.20;;
35576;SDS011;21680;52.400;16.920;2023-02-12T19:54:51;43.20;;;14.60;;
35576;SDS011;21680;52.400;16.920;2023-02-12T19:57:16;44.80;;;15.20;;
35576;SDS011;21680;52.400;16.920;2023-02-12T19:59:42;47.10;;;15.50;;
35576;SDS011;21680;52.400;16.920;2023-02-12T20:02:10;54.90;;;16.40;;
35576;SDS011;21680;52.400;16.920;2023-02-12T20:04:36;41.40;;;15.00;;
35576;SDS011;21680;52.400;16.920;2023-02-12T20:07:02;53.10;;;15.80;;
35576;SDS011;21680;52.400;16.920;2023-02-12T20:09:27;52.60;;;15.40;;
35576;SDS011;21680;52.400;16.920;2023-02-12T20:11:53;46.70;;;14.10;;
35576;SDS011;21680;52.400;16.920;2023-02-12T20:14:18;41.80;;;13.70;;
35576;SDS011;21680;52.400;16.920;2023-02-12T20:16:46;38.90;;;16.10;;
35576;SDS011;21680;52.400;16.920;2023-02-12T20:19:17;44.30;;;15.50;;
35576;SDS011;21680;52.400;16.920;2023-02-12T20:21:45;49.70;;;16.60;;
35576;SDS011;21680;52.400;16.920;2023-02-12T20:24:17;48.50;;;16.70;;
35576;SDS011;21680;52.400;16.920;2023-02-12T20:26:42;43.50;;;14.50;;
35576;SDS011;21680;52.400;16.920;2023-02-12T20:29:08;36.70;;;14.70;;
35576;SDS011;21680;52.400;16.920;2023-02-12T20:31:34;50.40;;;18.40;;
35576;SDS011;21680;52.400;16.920;2023-02-12T20:34:02;50.30;;;17.60;;
35576;SDS011;21680;52.400;16.920;2023-02-12T20:36:31;46.80;;;16.20;;
35576;SDS011;21680;52.400;16.920;2023-02-12T20:38:58;43.10;;;15.10;;
35576;SDS011;21680;52.400;16.920;2023-02-12T20:41:24;52.30;;;19.30;;
35576;SDS011;21680;52.400;16.920;2023-02-12T20:43:51;58.40;;;24.30;;
35576;SDS011;21680;52.400;16.920;2023-02-12T20:46:19;61.30;;;23.60;;
35576;SDS011;21680;52.400;16.920;2023-02-12T20:48:47;56.10;;;22.50;;
35576;SDS011;21680;52.400;16.920;2023-02-12T20:51:16;63.40;;;22.30;;
35576;SDS011;21680;52.400;16.920;2023-02-12T20:53:45;52.00;;;17.50;;
35576;SDS011;21680;52.400;16.920;2023-02-12T20:56:15;49.80;;;19.50;;
35576;SDS011;21680;52.400;16.920;2023-02-12T20:58:45;49.60;;;17.50;;
35576;SDS011;21680;52.400;16.920;2023-02-12T21:01:17;52.10;;;15.90;;
35576;SDS011;21680;52.400;16.920;2023-02-12T21:03:48;45.80;;;18.90;;
35576;SDS011;21680;52.400;16.920;2023-02-12T21:06:15;45.80;;;18.70;;
35576;SDS011;21680;52.400;16.920;2023-02-12T21:08:41;39.60;;;16.90;;
35576;SDS011;21680;52.400;16.920;2023-02-12T21:11:11;44.80;;;16.40;;
35576;SDS011;21680;52.400;16.920;2023-02-12T21:13:43;47.50;;;17.00;;
35576;SDS011;21680;52.400;16.920;2023-02-12T21:16:17;52.80;;;15.70;;
35576;SDS011;21680;52.400;16.920;2023-02-12T21:21:11;50.00;;;16.50;;
35576;SDS011;21680;52.400;16.920;2023-02-12T21:23:38;40.10;;;15.30;;
35576;SDS011;21680;52.400;16.920;2023-02-12T21:26:06;50.00;;;16.80;;
35576;SDS011;21680;52.400;16.920;2023-02-12T21:28:33;45.90;;;15.80;;
35576;SDS011;21680;52.400;16.920;2023-02-12T21:31:06;52.40;;;17.20;;
35576;SDS011;21680;52.400;16.920;2023-02-12T21:33:33;45.70;;;15.80;;
35576;SDS011;21680;52.400;16.920;2023-02-12T21:36:01;46.70;;;17.00;;
35576;SDS011;21680;52.400;16.920;2023-02-12T21:38:29;44.60;;;16.00;;
35576;SDS011;21680;52.400;16.920;2023-02-12T21:40:56;43.50;;;15.80;;
35576;SDS011;21680;52.400;16.920;2023-02-12T21:43:21;43.00;;;14.50;;
35576;SDS011;21680;52.400;16.920;2023-02-12T21:45:49;47.70;;;15.50;;
35576;SDS011;21680;52.400;16.920;2023-02-12T21:48:16;49.10;;;16.90;;
35576;SDS011;21680;52.400;16.920;2023-02-12T21:50:41;46.40;;;15.10;;
35576;SDS011;21680;52.400;16.920;2023-02-12T21:53:06;45.10;;;14.20;;
35576;SDS011;21680;52.400;16.920;2023-02-12T21:55:34;33.60;;;12.40;;
35576;SDS011;21680;52.400;16.920;2023-02-12T21:58:01;37.10;;;14.50;;
35576;SDS011;21680;52.400;16.920;2023-02-12T22:00:26;40.50;;;14.00;;
35576;SDS011;21680;52.400;16.920;2023-02-12T22:02:51;40.00;;;13.40;;
35576;SDS011;21680;52.400;16.920;2023-02-12T22:05:17;40.70;;;14.90;;
35576;SDS011;21680;52.400;16.920;2023-02-12T22:07:42;45.80;;;13.30;;
35576;SDS011;21680;52.400;16.920;2023-02-12T22:10:07;33.00;;;13.40;;
35576;SDS011;21680;52.400;16.920;2023-02-12T22:12:34;44.10;;;14.40;;
35576;SDS011;21680;52.400;16.920;2023-02-12T22:14:59;28.90;;;11.00;;
35576;SDS011;21680;52.400;16.920;2023-02-12T22:17:25;30.90;;;12.10;;
35576;SDS011;21680;52.400;16.920;2023-02-12T22:19:50;32.50;;;12.10;;
35576;SDS011;21680;52.400;16.920;2023-02-12T22:22:15;31.10;;;12.50;;
35576;SDS011;21680;52.400;16.920;2023-02-12T22:24:40;29.30;;;11.60;;
35576;SDS011;21680;52.400;16.920;2023-02-12T22:27:06;37.40;;;13.20;;
35576;SDS011;21680;52.400;16.920;2023-02-12T22:29:31;37.50;;;12.90;;
35576;SDS011;21680;52.400;16.920;2023-02-12T22:31:56;34.50;;;13.30;;
35576;SDS011;21680;52.400;16.920;2023-02-12T22:34:21;32.40;;;13.60;;
35576;SDS011;21680;52.400;16.920;2023-02-12T22:36:47;35.40;;;12.00;;
35576;SDS011;21680;52.400;16.920;2023-02-12T22:39:13;41.70;;;13.50;;
35576;SDS011;21680;52.400;16.920;2023-02-12T22:41:38;25.60;;;11.60;;
35576;SDS011;21680;52.400;16.920;2023-02-12T22:44:05;38.40;;;12.80;;
35576;SDS011;21680;52.400;16.920;2023-02-12T22:46:31;34.30;;;11.40;;
35576;SDS011;21680;52.400;16.920;2023-02-12T22:48:59;30.50;;;12.10;;
35576;SDS011;21680;52.400;16.920;2023-02-12T22:51:28;34.60;;;11.60;;
35576;SDS011;21680;52.400;16.920;2023-02-12T22:53:55;37.50;;;12.10;;
35576;SDS011;21680;52.400;16.920;2023-02-12T22:56:21;34.10;;;11.40;;
35576;SDS011;21680;52.400;16.920;2023-02-12T22:58:47;31.30;;;11.20;;
35576;SDS011;21680;52.400;16.920;2023-02-12T23:01:17;26.30;;;10.90;;
35576;SDS011;21680;52.400;16.920;2023-02-12T23:03:43;37.30;;;11.90;;
35576;SDS011;21680;52.400;16.920;2023-02-12T23:06:10;33.00;;;10.70;;
35576;SDS011;21680;52.400;16.920;2023-02-12T23:08:38;35.60;;;12.20;;
35576;SDS011;21680;52.400;16.920;2023-02-12T23:11:03;23.80;;;9.50;;
35576;SDS011;21680;52.400;16.920;2023-02-12T23:13:29;25.60;;;8.40;;
35576;SDS011;21680;52.400;16.920;2023-02-12T23:15:55;30.80;;;9.00;;
35576;SDS011;21680;52.400;16.920;2023-02-12T23:18:21;21.40;;;8.10;;
35576;SDS011;21680;52.400;16.920;2023-02-12T23:20:47;29.30;;;9.40;;
35576;SDS011;21680;52.400;16.920;2023-02-12T23:23:14;18.80;;;6.80;;
35576;SDS011;21680;52.400;16.920;2023-02-12T23:25:40;21.50;;;7.50;;
35576;SDS011;21680;52.400;16.920;2023-02-12T23:28:05;20.10;;;7.00;;
35576;SDS011;21680;52.400;16.920;2023-02-12T23:30:31;19.90;;;7.00;;
35576;SDS011;21680;52.400;16.920;2023-02-12T23:32:56;19.80;;;6.30;;
35576;SDS011;21680;52.400;16.920;2023-02-12T23:35:21;17.20;;;6.80;;
35576;SDS011;21680;52.400;16.920;2023-02-12T23:37:46;20.10;;;6.60;;
35576;SDS011;21680;52.400;16.920;2023-02-12T23:40:12;21.70;;;6.80;;
35576;SDS011;21680;52.400;16.920;2023-02-12T23:42:37;15.10;;;6.20;;
35576;SDS011;21680;52.400;16.920;2023-02-12T23:45:04;12.50;;;5.90;;
35576;SDS011;21680;52.400;16.920;2023-02-12T23:47:30;11.00;;;5.60;;
35576;SDS011;21680;52.400;16.920;2023-02-12T23:49:55;17.20;;;5.50;;
35576;SDS011;21680;52.400;16.920;2023-02-12T23:52:21;17.40;;;6.50;;
35576;SDS011;21680;52.400;16.920;2023-02-12T23:54:46;11.60;;;4.90;;
35576;SDS011;21680;52.400;16.920;2023-02-12T23:57:11;19.40;;;5.60;;
35576;SDS011;21680;52.400;16.920;2023-02-12T23:59:37;13.10;;;5.30;;
